createdAt,value
2022-07-28T00:01:10.551Z,99.90
2022-07-28T00:03:39.793Z,99.90
2022-07-28T00:06:07.725Z,99.90
2022-07-28T00:08:35.683Z,99.90
2022-07-28T00:11:03.547Z,99.90
2022-07-28T00:13:31.532Z,99.90
2022-07-28T00:15:59.610Z,99.90
2022-07-28T00:18:27.687Z,99.90
2022-07-28T00:20:58.024Z,99.90
2022-07-28T00:23:33.912Z,99.90
2022-07-28T00:26:07.679Z,99.90
2022-07-28T00:28:35.674Z,99.90
2022-07-28T00:31:05.014Z,99.90
2022-07-28T00:33:35.342Z,99.90
2022-07-28T00:36:05.136Z,99.90
2022-07-28T00:38:34.621Z,99.90
2022-07-28T00:41:11.941Z,99.90
2022-07-28T00:43:40.482Z,99.90
2022-07-28T00:46:08.600Z,99.90
2022-07-28T00:48:38.753Z,99.90
2022-07-28T00:51:09.053Z,99.90
2022-07-28T00:53:37.964Z,99.90
2022-07-28T00:56:07.089Z,99.90
2022-07-28T00:58:36.065Z,99.90
2022-07-28T01:01:04.325Z,99.90
2022-07-28T01:03:33.586Z,99.90
2022-07-28T01:06:07.633Z,99.90
2022-07-28T01:08:44.787Z,99.90
2022-07-28T01:11:26.359Z,99.90
2022-07-28T01:14:00.721Z,99.90
2022-07-28T01:16:29.545Z,99.90
2022-07-28T01:19:05.827Z,99.90
2022-07-28T01:21:36.325Z,99.90
2022-07-28T01:24:15.324Z,99.90
2022-07-28T01:26:54.556Z,99.90
2022-07-28T01:29:37.535Z,99.90
2022-07-28T01:32:09.414Z,99.90
2022-07-28T01:34:46.213Z,99.90
2022-07-28T01:37:18.274Z,99.90
2022-07-28T01:39:47.759Z,99.90
2022-07-28T01:42:17.735Z,99.90
2022-07-28T01:44:49.756Z,99.90
2022-07-28T01:47:21.024Z,99.90
2022-07-28T01:49:51.683Z,99.90
2022-07-28T01:52:21.058Z,99.90
2022-07-28T01:54:51.963Z,99.90
2022-07-28T01:57:21.507Z,99.90
2022-07-28T01:59:50.561Z,99.90
2022-07-28T02:02:22.533Z,99.90
2022-07-28T02:04:53.366Z,99.90
2022-07-28T02:07:23.371Z,99.90
2022-07-28T02:09:52.013Z,99.90
2022-07-28T02:12:21.112Z,99.90
2022-07-28T02:14:51.227Z,99.90
2022-07-28T02:17:25.560Z,99.90
2022-07-28T02:19:54.740Z,99.90
2022-07-28T02:22:22.932Z,99.90
2022-07-28T02:24:51.481Z,99.90
2022-07-28T02:27:24.561Z,99.90
2022-07-28T02:29:58.325Z,99.90
2022-07-28T02:32:33.049Z,99.90
2022-07-28T02:35:06.617Z,99.90
2022-07-28T02:37:39.999Z,99.90
2022-07-28T02:40:12.874Z,99.90
2022-07-28T02:42:42.140Z,99.90
2022-07-28T02:45:13.025Z,99.90
2022-07-28T02:47:49.480Z,99.90
2022-07-28T02:50:21.276Z,99.90
2022-07-28T02:52:50.426Z,99.90
2022-07-28T02:55:19.191Z,99.90
2022-07-28T02:57:53.169Z,99.90
2022-07-28T03:00:25.314Z,99.90
2022-07-28T03:02:55.694Z,99.90
2022-07-28T03:05:24.311Z,99.90
2022-07-28T03:07:53.689Z,99.90
2022-07-28T03:10:34.043Z,99.90
2022-07-28T03:13:04.303Z,99.90
2022-07-28T03:15:32.546Z,99.90
2022-07-28T03:18:03.117Z,99.90
2022-07-28T03:20:31.605Z,99.90
2022-07-28T03:23:00.153Z,99.90
2022-07-28T03:25:35.623Z,99.90
2022-07-28T03:28:07.432Z,99.90
2022-07-28T03:30:58.045Z,99.90
2022-07-28T03:33:28.435Z,99.90
2022-07-28T03:35:59.260Z,99.90
2022-07-28T03:38:34.674Z,99.90
2022-07-28T03:41:03.682Z,99.90
2022-07-28T03:43:34.542Z,99.90
2022-07-28T03:46:02.656Z,99.90
2022-07-28T03:48:33.474Z,99.90
2022-07-28T03:51:01.744Z,99.90
2022-07-28T03:53:31.074Z,99.90
2022-07-28T03:55:59.204Z,99.90
2022-07-28T03:58:29.273Z,99.90
2022-07-28T04:00:57.863Z,99.90
2022-07-28T04:03:43.082Z,99.90
2022-07-28T04:06:13.980Z,99.90
2022-07-28T04:08:42.419Z,99.90
2022-07-28T04:11:10.444Z,99.90
2022-07-28T04:13:38.352Z,99.90
2022-07-28T04:16:07.263Z,99.90
2022-07-28T04:18:35.945Z,99.90
2022-07-28T04:21:03.940Z,99.90
2022-07-28T04:23:34.381Z,99.90
2022-07-28T04:26:02.382Z,99.90
2022-07-28T04:28:30.271Z,99.90
2022-07-28T04:30:58.278Z,99.90
2022-07-28T04:33:26.354Z,99.90
2022-07-28T04:35:54.519Z,99.90
2022-07-28T04:38:22.384Z,99.90
2022-07-28T04:40:51.639Z,99.90
2022-07-28T04:43:19.581Z,99.90
2022-07-28T04:45:53.303Z,99.90
2022-07-28T04:48:21.568Z,99.90
2022-07-28T04:50:51.146Z,99.90
2022-07-28T04:53:19.342Z,99.90
2022-07-28T04:55:47.338Z,99.90
2022-07-28T04:58:19.529Z,99.90
2022-07-28T05:00:50.806Z,99.90
2022-07-28T05:03:19.408Z,99.90
2022-07-28T05:05:54.099Z,99.90
2022-07-28T05:08:25.713Z,99.90
2022-07-28T05:10:56.892Z,99.90
2022-07-28T05:13:31.877Z,99.90
2022-07-28T05:16:02.458Z,99.90
2022-07-28T05:18:30.500Z,99.90
2022-07-28T05:20:58.443Z,99.90
2022-07-28T05:23:26.344Z,99.90
2022-07-28T05:25:54.476Z,99.90
2022-07-28T05:28:22.370Z,99.90
2022-07-28T05:30:51.673Z,99.90
2022-07-28T05:33:19.599Z,99.90
2022-07-28T05:35:54.634Z,99.90
2022-07-28T05:38:22.685Z,99.90
2022-07-28T05:40:50.701Z,99.90
2022-07-28T05:43:18.956Z,99.90
2022-07-28T05:45:47.128Z,99.90
2022-07-28T05:48:18.323Z,99.90
2022-07-28T05:50:46.455Z,99.90
2022-07-28T05:53:14.505Z,99.90
2022-07-28T05:56:00.182Z,99.90
2022-07-28T05:58:31.623Z,99.90
2022-07-28T06:01:00.900Z,99.90
2022-07-28T06:03:32.041Z,99.90
2022-07-28T06:06:14.649Z,99.90
2022-07-28T06:08:46.095Z,99.90
2022-07-28T06:11:22.526Z,99.90
2022-07-28T06:13:52.164Z,99.90
2022-07-28T06:16:21.568Z,99.90
2022-07-28T06:18:51.370Z,99.90
2022-07-28T06:21:19.331Z,99.90
2022-07-28T06:23:47.282Z,99.90
2022-07-28T06:26:15.196Z,99.90
2022-07-28T06:28:43.111Z,99.90
2022-07-28T06:31:11.072Z,99.90
2022-07-28T06:33:39.107Z,99.90
2022-07-28T06:36:08.656Z,99.90
2022-07-28T06:38:37.246Z,99.90
2022-07-28T06:41:05.227Z,99.90
2022-07-28T06:43:38.322Z,99.90
2022-07-28T06:46:06.831Z,99.90
2022-07-28T06:48:37.472Z,99.90
2022-07-28T06:51:05.812Z,99.90
2022-07-28T06:53:35.119Z,99.90
2022-07-28T06:56:04.749Z,99.90
2022-07-28T06:58:33.272Z,99.90
2022-07-28T07:01:02.515Z,99.90
2022-07-28T07:03:30.523Z,99.90
2022-07-28T07:05:58.488Z,99.90
2022-07-28T07:08:26.437Z,99.90
2022-07-28T07:10:56.874Z,99.90
2022-07-28T07:13:24.965Z,99.90
2022-07-28T07:15:53.163Z,99.90
2022-07-28T07:18:21.153Z,99.90
2022-07-28T07:20:49.160Z,99.90
2022-07-28T07:23:17.038Z,99.50
2022-07-28T07:25:44.974Z,99.20
2022-07-28T07:28:14.182Z,99.90
2022-07-28T07:30:42.108Z,99.40
2022-07-28T07:33:10.531Z,99.40
2022-07-28T07:35:39.018Z,97.70
2022-07-28T07:38:07.254Z,97.40
2022-07-28T07:40:35.241Z,98.50
2022-07-28T07:43:03.217Z,97.70
2022-07-28T07:45:34.264Z,97.00
2022-07-28T07:48:02.568Z,97.00
2022-07-28T07:50:30.599Z,95.50
2022-07-28T07:52:58.496Z,96.40
2022-07-28T07:55:26.503Z,96.50
2022-07-28T07:57:57.180Z,93.50
2022-07-28T08:00:29.006Z,94.20
2022-07-28T08:02:59.235Z,94.20
2022-07-28T08:05:35.394Z,97.40
2022-07-28T08:08:05.816Z,96.30
2022-07-28T08:10:33.978Z,94.60
2022-07-28T08:13:03.101Z,94.50
2022-07-28T08:15:31.469Z,94.90
2022-07-28T08:18:00.783Z,93.10
2022-07-28T08:20:29.153Z,94.40
2022-07-28T08:22:58.565Z,93.80
2022-07-28T08:25:27.044Z,93.50
2022-07-28T08:27:54.944Z,94.60
2022-07-28T08:30:27.381Z,93.90
2022-07-28T08:32:58.121Z,91.90
2022-07-28T08:35:33.428Z,91.30
2022-07-28T08:38:04.520Z,91.80
2022-07-28T08:40:33.248Z,94.00
2022-07-28T08:43:05.308Z,93.20
2022-07-28T08:45:37.260Z,93.20
2022-07-28T08:48:09.118Z,93.60
2022-07-28T08:50:39.067Z,92.50
2022-07-28T08:53:08.179Z,91.70
2022-07-28T08:55:37.799Z,92.40
2022-07-28T08:58:05.984Z,91.70
2022-07-28T09:00:34.141Z,91.40
2022-07-28T09:03:04.397Z,92.10
2022-07-28T09:05:33.474Z,93.00
2022-07-28T09:08:03.813Z,91.60
2022-07-28T09:10:32.033Z,90.70
2022-07-28T09:12:59.987Z,91.80
2022-07-28T09:15:28.091Z,91.30
2022-07-28T09:17:56.462Z,91.20
2022-07-28T09:20:25.087Z,90.70
2022-07-28T09:22:58.168Z,91.30
2022-07-28T09:25:28.149Z,90.40
2022-07-28T09:27:56.189Z,88.50
2022-07-28T09:30:31.794Z,90.50
2022-07-28T09:33:42.341Z,86.30
2022-07-28T09:36:14.810Z,88.00
2022-07-28T09:38:43.268Z,86.40
2022-07-28T09:41:12.644Z,87.00
2022-07-28T09:43:42.343Z,85.20
2022-07-28T09:46:12.331Z,86.40
2022-07-28T09:48:53.910Z,86.00
2022-07-28T09:51:23.689Z,87.50
2022-07-28T09:53:52.043Z,85.30
2022-07-28T09:56:23.411Z,86.30
2022-07-28T09:58:56.036Z,86.80
2022-07-28T10:01:25.902Z,86.90
2022-07-28T10:04:02.725Z,83.30
2022-07-28T10:06:32.819Z,84.10
2022-07-28T10:09:02.919Z,82.80
2022-07-28T10:11:36.434Z,88.00
2022-07-28T10:14:08.097Z,85.10
2022-07-28T10:16:42.928Z,91.20
2022-07-28T10:19:10.994Z,84.30
2022-07-28T10:21:44.440Z,87.90
2022-07-28T10:24:21.974Z,85.20
2022-07-28T10:26:53.415Z,85.60
2022-07-28T10:29:23.248Z,86.30
2022-07-28T10:31:54.418Z,84.20
2022-07-28T10:34:25.174Z,85.30
2022-07-28T10:36:56.687Z,82.20
2022-07-28T10:39:30.096Z,86.20
2022-07-28T10:41:59.581Z,83.80
2022-07-28T10:44:27.898Z,82.00
2022-07-28T10:46:56.449Z,84.10
2022-07-28T10:49:27.673Z,82.80
2022-07-28T10:52:06.255Z,84.30
2022-07-28T10:54:44.128Z,85.40
2022-07-28T10:57:14.730Z,81.40
2022-07-28T10:59:58.653Z,83.50
2022-07-28T11:02:50.254Z,80.30
2022-07-28T11:05:30.543Z,83.00
2022-07-28T11:08:01.141Z,82.10
2022-07-28T11:10:30.525Z,81.50
2022-07-28T11:13:00.619Z,82.90
2022-07-28T11:15:34.460Z,79.50
2022-07-28T11:18:05.767Z,78.50
2022-07-28T11:21:08.036Z,79.20
2022-07-28T11:23:55.258Z,84.40
2022-07-28T11:26:38.674Z,84.80
2022-07-28T11:29:18.220Z,82.60
2022-07-28T11:32:03.623Z,80.50
2022-07-28T11:35:19.790Z,79.90
2022-07-28T11:38:10.311Z,80.50
2022-07-28T11:40:40.679Z,79.30
2022-07-28T11:43:36.190Z,79.70
2022-07-28T11:46:31.681Z,83.90
2022-07-28T11:49:27.938Z,82.60
2022-07-28T11:52:12.360Z,80.60
2022-07-28T11:54:42.747Z,81.00
2022-07-28T11:57:11.915Z,78.50
2022-07-28T11:59:50.377Z,78.80
2022-07-28T12:02:25.448Z,77.70
2022-07-28T12:04:58.533Z,77.60
2022-07-28T12:07:36.384Z,76.90
2022-07-28T12:10:51.782Z,76.30
2022-07-28T12:13:12.975Z,75.20
2022-07-28T12:15:41.029Z,77.20
2022-07-28T12:18:13.104Z,77.50
2022-07-28T12:20:48.739Z,78.40
2022-07-28T12:23:39.241Z,80.20
2022-07-28T12:26:29.142Z,75.80
2022-07-28T12:29:00.151Z,74.90
2022-07-28T12:31:33.101Z,85.90
2022-07-28T12:34:06.111Z,78.00
2022-07-28T12:36:35.020Z,82.90
2022-07-28T12:39:03.538Z,80.50
2022-07-28T12:41:33.680Z,77.00
2022-07-28T12:44:05.561Z,78.20
2022-07-28T12:46:38.983Z,75.60
2022-07-28T12:49:21.987Z,75.00
2022-07-28T12:51:50.142Z,74.20
2022-07-28T12:54:18.386Z,75.70
2022-07-28T12:56:48.077Z,76.40
2022-07-28T12:59:18.312Z,77.60
2022-07-28T13:01:51.356Z,72.70
2022-07-28T13:04:41.047Z,74.30
2022-07-28T13:07:11.096Z,71.60
2022-07-28T13:09:47.119Z,77.50
2022-07-28T13:12:19.509Z,74.90
2022-07-28T13:14:51.823Z,73.80
2022-07-28T13:17:20.486Z,73.10
2022-07-28T13:19:50.104Z,75.20
2022-07-28T13:22:27.747Z,73.50
2022-07-28T13:24:57.769Z,71.40
2022-07-28T13:27:26.216Z,68.80
2022-07-28T13:29:54.711Z,71.40
2022-07-28T13:32:22.794Z,70.30
2022-07-28T13:34:52.792Z,72.20
2022-07-28T13:37:20.786Z,72.40
2022-07-28T13:39:54.167Z,73.30
2022-07-28T13:42:23.688Z,73.20
2022-07-28T13:44:51.986Z,74.20
2022-07-28T13:47:20.192Z,70.70
2022-07-28T13:49:48.212Z,71.20
2022-07-28T13:52:32.692Z,68.50
2022-07-28T13:55:05.927Z,72.60
2022-07-28T13:57:36.692Z,71.00
2022-07-28T14:00:08.037Z,72.10
2022-07-28T14:02:36.866Z,67.80
2022-07-28T14:05:06.124Z,71.40
2022-07-28T14:07:35.439Z,69.60
2022-07-28T14:10:07.500Z,70.80
2022-07-28T14:12:37.678Z,70.90
2022-07-28T14:15:09.724Z,69.80
2022-07-28T14:17:44.085Z,67.30
2022-07-28T14:20:14.620Z,68.80
2022-07-28T14:22:44.557Z,68.40
2022-07-28T14:25:20.906Z,65.40
2022-07-28T14:27:49.613Z,68.30
2022-07-28T14:30:17.865Z,72.80
2022-07-28T14:32:45.794Z,68.40
2022-07-28T14:35:13.745Z,67.70
2022-07-28T14:40:32.060Z,68.60
2022-07-28T14:43:00.848Z,68.80
2022-07-28T14:45:29.778Z,70.70
2022-07-28T14:47:57.718Z,70.70
2022-07-28T14:50:26.111Z,68.80
2022-07-28T14:52:55.417Z,69.60
2022-07-28T14:55:23.358Z,68.70
2022-07-28T14:57:54.892Z,69.50
2022-07-28T15:00:24.727Z,66.50
2022-07-28T15:02:53.522Z,68.80
2022-07-28T15:05:22.749Z,70.90
2022-07-28T15:07:52.164Z,69.80
2022-07-28T15:10:21.886Z,68.30
2022-07-28T15:12:50.683Z,68.40
2022-07-28T15:15:21.142Z,69.10
2022-07-28T15:17:49.041Z,69.20
2022-07-28T15:20:17.114Z,68.80
2022-07-28T15:22:45.037Z,68.30
2022-07-28T15:25:14.682Z,66.70
2022-07-28T15:27:45.788Z,64.80
2022-07-28T15:30:14.632Z,67.00
2022-07-28T15:32:57.211Z,65.40
2022-07-28T15:35:27.267Z,65.50
2022-07-28T15:37:56.116Z,67.60
2022-07-28T15:40:25.169Z,69.40
2022-07-28T15:42:54.413Z,67.00
2022-07-28T15:45:22.349Z,68.50
2022-07-28T15:47:50.692Z,66.30
2022-07-28T15:50:18.594Z,67.40
2022-07-28T15:52:46.624Z,68.10
2022-07-28T15:55:14.593Z,69.20
2022-07-28T15:57:42.513Z,71.00
2022-07-28T16:00:12.485Z,71.80
2022-07-28T16:02:41.117Z,69.30
2022-07-28T16:05:09.731Z,71.00
2022-07-28T16:07:41.832Z,69.50
2022-07-28T16:10:12.603Z,74.00
2022-07-28T16:12:40.585Z,71.90
2022-07-28T16:15:09.511Z,70.50
2022-07-28T16:17:38.782Z,73.40
2022-07-28T16:20:10.301Z,72.80
2022-07-28T16:22:40.639Z,73.90
2022-07-28T16:25:11.865Z,75.60
2022-07-28T16:27:44.501Z,76.50
2022-07-28T16:30:13.402Z,73.50
2022-07-28T16:32:43.126Z,72.20
2022-07-28T16:35:11.626Z,76.00
2022-07-28T16:37:40.218Z,74.30
2022-07-28T16:40:09.608Z,73.70
2022-07-28T16:42:37.692Z,74.30
2022-07-28T16:45:06.635Z,73.50
2022-07-28T16:47:34.571Z,74.20
2022-07-28T16:50:05.426Z,75.80
2022-07-28T16:52:36.344Z,74.50
2022-07-28T16:55:04.744Z,74.20
2022-07-28T16:57:32.661Z,74.00
2022-07-28T17:00:00.590Z,75.50
2022-07-28T17:02:28.525Z,76.20
2022-07-28T17:04:56.511Z,73.80
2022-07-28T17:07:26.066Z,75.30
2022-07-28T17:09:54.046Z,73.50
2022-07-28T17:12:22.111Z,76.60
2022-07-28T17:14:50.034Z,75.80
2022-07-28T17:17:17.906Z,74.10
2022-07-28T17:19:47.717Z,73.10
2022-07-28T17:22:16.269Z,74.80
2022-07-28T17:24:46.165Z,72.90
2022-07-28T17:30:02.088Z,75.10
2022-07-28T17:32:30.019Z,76.40
2022-07-28T17:34:57.982Z,74.10
2022-07-28T17:37:27.261Z,77.00
2022-07-28T17:39:57.250Z,75.40
2022-07-28T17:42:25.169Z,74.30
2022-07-28T17:44:56.109Z,77.10
2022-07-28T17:47:36.069Z,75.50
2022-07-28T17:50:07.181Z,76.40
2022-07-28T17:52:35.086Z,77.60
2022-07-28T17:55:23.974Z,76.60
2022-07-28T17:57:52.776Z,77.10
2022-07-28T18:00:22.655Z,75.50
2022-07-28T18:02:50.721Z,75.40
2022-07-28T18:05:19.383Z,77.20
2022-07-28T18:07:50.080Z,75.80
2022-07-28T18:10:25.012Z,75.90
2022-07-28T18:12:55.134Z,77.00
2022-07-28T18:15:23.081Z,76.30
2022-07-28T18:17:55.124Z,77.20
2022-07-28T18:20:24.172Z,76.10
2022-07-28T18:22:52.290Z,76.60
2022-07-28T18:25:21.654Z,76.00
2022-07-28T18:27:49.866Z,75.90
2022-07-28T18:30:18.142Z,76.20
2022-07-28T18:32:46.252Z,75.90
2022-07-28T18:35:14.219Z,76.30
2022-07-28T18:37:45.938Z,76.80
2022-07-28T18:40:15.708Z,77.60
2022-07-28T18:42:46.295Z,78.90
2022-07-28T18:45:14.631Z,78.70
2022-07-28T18:47:46.607Z,79.20
2022-07-28T18:50:30.942Z,79.70
2022-07-28T18:53:00.286Z,80.30
2022-07-28T18:55:28.411Z,81.20
2022-07-28T18:57:57.884Z,81.50
2022-07-28T19:00:25.965Z,82.50
2022-07-28T19:02:54.000Z,82.90
2022-07-28T19:05:22.972Z,83.70
2022-07-28T19:07:54.615Z,85.10
2022-07-28T19:10:23.072Z,85.10
2022-07-28T19:12:51.434Z,85.90
2022-07-28T19:15:21.283Z,86.30
2022-07-28T19:18:09.804Z,86.30
2022-07-28T19:20:38.096Z,87.10
2022-07-28T19:23:06.197Z,87.80
2022-07-28T19:25:36.136Z,87.90
2022-07-28T19:28:04.697Z,88.20
2022-07-28T19:30:35.141Z,88.50
2022-07-28T19:33:03.522Z,89.10
2022-07-28T19:35:31.918Z,89.30
2022-07-28T19:38:01.066Z,89.20
2022-07-28T19:40:31.894Z,90.00
2022-07-28T19:43:00.620Z,90.10
2022-07-28T19:45:28.825Z,90.30
2022-07-28T19:47:58.822Z,90.40
2022-07-28T19:50:26.984Z,90.70
2022-07-28T19:52:55.514Z,90.90
2022-07-28T19:55:26.940Z,91.10
2022-07-28T19:57:59.271Z,91.30
2022-07-28T20:00:27.875Z,91.70
2022-07-28T20:02:56.558Z,91.80
2022-07-28T20:05:27.947Z,92.10
2022-07-28T20:07:56.200Z,92.60
2022-07-28T20:10:24.849Z,93.00
2022-07-28T20:12:52.957Z,92.90
2022-07-28T20:15:21.083Z,93.30
2022-07-28T20:17:49.484Z,93.50
2022-07-28T20:20:17.861Z,93.10
2022-07-28T20:22:47.653Z,93.00
2022-07-28T20:25:16.270Z,93.00
2022-07-28T20:27:44.431Z,93.30
2022-07-28T20:30:13.959Z,93.50
2022-07-28T20:32:44.089Z,93.50
2022-07-28T20:35:13.001Z,93.90
2022-07-28T20:37:40.991Z,94.20
2022-07-28T20:40:11.302Z,94.40
2022-07-28T20:42:39.833Z,94.70
2022-07-28T20:45:08.938Z,94.80
2022-07-28T20:47:37.362Z,95.10
2022-07-28T20:50:06.995Z,95.30
2022-07-28T20:52:35.430Z,95.30
2022-07-28T20:55:04.607Z,95.40
2022-07-28T20:57:34.601Z,95.80
2022-07-28T21:00:03.343Z,95.90
2022-07-28T21:02:31.782Z,95.90
2022-07-28T21:05:00.293Z,96.10
2022-07-28T21:08:00.759Z,96.20
2022-07-28T21:10:17.547Z,96.40
2022-07-28T21:12:46.973Z,96.50
2022-07-28T21:15:15.419Z,96.60
2022-07-28T21:17:44.209Z,96.90
2022-07-28T21:20:15.554Z,97.20
2022-07-28T21:22:44.224Z,97.50
2022-07-28T21:25:13.588Z,97.80
2022-07-28T21:28:00.472Z,98.30
2022-07-28T21:30:34.206Z,98.40
2022-07-28T21:33:02.448Z,98.70
2022-07-28T21:35:30.613Z,98.80
2022-07-28T21:37:58.507Z,99.20
2022-07-28T21:40:27.127Z,99.50
2022-07-28T21:42:55.345Z,99.90
2022-07-28T21:45:23.302Z,99.90
2022-07-28T21:47:52.637Z,99.90
2022-07-28T21:50:20.596Z,99.90
2022-07-28T21:52:48.480Z,99.90
2022-07-28T21:55:16.570Z,99.90
2022-07-28T21:57:44.441Z,99.90
2022-07-28T22:00:13.654Z,99.90
2022-07-28T22:02:41.880Z,99.90
2022-07-28T22:05:39.826Z,99.90
2022-07-28T22:08:08.655Z,99.90
2022-07-28T22:10:36.630Z,99.90
2022-07-28T22:13:04.562Z,99.90
2022-07-28T22:15:32.495Z,99.90
2022-07-28T22:18:00.450Z,99.90
2022-07-28T22:20:28.385Z,99.90
2022-07-28T22:22:57.590Z,99.90
2022-07-28T22:25:25.674Z,99.90
2022-07-28T22:27:53.842Z,99.90
2022-07-28T22:30:22.172Z,99.90
2022-07-28T22:32:50.092Z,99.90
2022-07-28T22:35:18.324Z,99.90
2022-07-28T22:37:46.280Z,99.90
2022-07-28T22:40:16.434Z,99.90
2022-07-28T22:42:45.000Z,99.90
2022-07-28T22:45:13.601Z,99.90
2022-07-28T22:47:41.833Z,99.90
2022-07-28T22:50:11.346Z,99.90
2022-07-28T22:52:39.432Z,99.90
2022-07-28T22:55:08.479Z,99.90
2022-07-28T22:57:37.757Z,99.90
2022-07-28T23:00:07.569Z,99.90
2022-07-28T23:02:35.744Z,99.90
2022-07-28T23:05:05.968Z,99.90
2022-07-28T23:07:51.015Z,99.90
2022-07-28T23:10:21.587Z,99.90
2022-07-28T23:12:50.881Z,99.90
2022-07-28T23:15:18.906Z,99.90
2022-07-28T23:17:46.777Z,99.90
2022-07-28T23:20:14.971Z,99.90
2022-07-28T23:22:42.865Z,99.90
2022-07-28T23:25:11.341Z,99.90
2022-07-28T23:27:39.391Z,99.90
2022-07-28T23:30:09.629Z,99.90
2022-07-28T23:32:37.517Z,99.90
2022-07-28T23:35:06.232Z,99.90
2022-07-28T23:37:34.832Z,99.90
2022-07-28T23:40:04.541Z,99.90
2022-07-28T23:42:32.468Z,99.90
2022-07-28T23:45:00.358Z,99.90
2022-07-28T23:47:29.589Z,99.90
2022-07-28T23:49:57.589Z,99.90
2022-07-28T23:52:25.433Z,99.90
2022-07-28T23:54:53.399Z,99.90
2022-07-28T23:57:21.348Z,99.90
2022-07-28T23:59:49.355Z,99.90
